sensor_id;sensor_type;location;lat;lon;timestamp;pressure;altitude;pressure_sealevel;temperature
29423;BMP180;16399;51.686;8.684;2023-11-21T00:00:19;99300.00;;;6.30
29423;BMP180;16399;51.686;8.684;2023-11-21T00:03:22;99306.00;;;6.30
29423;BMP180;16399;51.686;8.684;2023-11-21T00:06:24;99307.00;;;6.30
29423;BMP180;16399;51.686;8.684;2023-11-21T00:09:27;99313.00;;;6.30
29423;BMP180;16399;51.686;8.684;2023-11-21T00:12:29;99298.00;;;6.30
29423;BMP180;16399;51.686;8.684;2023-11-21T00:15:32;99312.00;;;6.30
29423;BMP180;16399;51.686;8.684;2023-11-21T00:18:34;99293.00;;;6.30
29423;BMP180;16399;51.686;8.684;2023-11-21T00:21:37;99313.00;;;6.30
29423;BMP180;16399;51.686;8.684;2023-11-21T00:24:39;99305.00;;;6.20
29423;BMP180;16399;51.686;8.684;2023-11-21T00:27:42;99304.00;;;6.20
29423;BMP180;16399;51.686;8.684;2023-11-21T00:30:44;99307.00;;;6.10
29423;BMP180;16399;51.686;8.684;2023-11-21T00:33:47;99313.00;;;6.10
29423;BMP180;16399;51.686;8.684;2023-11-21T00:36:49;99316.00;;;6.10
29423;BMP180;16399;51.686;8.684;2023-11-21T00:39:51;99318.00;;;6.10
29423;BMP180;16399;51.686;8.684;2023-11-21T00:42:53;99324.00;;;6.20
29423;BMP180;16399;51.686;8.684;2023-11-21T00:45:57;99323.00;;;6.30
29423;BMP180;16399;51.686;8.684;2023-11-21T00:48:59;99323.00;;;6.40
29423;BMP180;16399;51.686;8.684;2023-11-21T00:52:01;99328.00;;;6.40
29423;BMP180;16399;51.686;8.684;2023-11-21T00:55:05;99330.00;;;6.50
29423;BMP180;16399;51.686;8.684;2023-11-21T00:58:08;99323.00;;;6.60
29423;BMP180;16399;51.686;8.684;2023-11-21T01:01:11;99333.00;;;6.60
29423;BMP180;16399;51.686;8.684;2023-11-21T01:04:13;99334.00;;;6.70
29423;BMP180;16399;51.686;8.684;2023-11-21T01:07:16;99335.00;;;6.70
29423;BMP180;16399;51.686;8.684;2023-11-21T01:10:20;99344.00;;;6.80
29423;BMP180;16399;51.686;8.684;2023-11-21T01:13:22;99344.00;;;6.80
29423;BMP180;16399;51.686;8.684;2023-11-21T01:16:24;99344.00;;;6.80
29423;BMP180;16399;51.686;8.684;2023-11-21T01:19:26;99349.00;;;6.80
29423;BMP180;16399;51.686;8.684;2023-11-21T01:22:30;99343.00;;;6.90
29423;BMP180;16399;51.686;8.684;2023-11-21T01:25:32;99355.00;;;6.90
29423;BMP180;16399;51.686;8.684;2023-11-21T01:28:34;99351.00;;;6.90
29423;BMP180;16399;51.686;8.684;2023-11-21T01:31:36;99348.00;;;7.00
29423;BMP180;16399;51.686;8.684;2023-11-21T01:34:39;99350.00;;;7.00
29423;BMP180;16399;51.686;8.684;2023-11-21T01:37:41;99361.00;;;7.10
29423;BMP180;16399;51.686;8.684;2023-11-21T01:40:43;99352.00;;;7.10
29423;BMP180;16399;51.686;8.684;2023-11-21T01:43:46;99354.00;;;7.10
29423;BMP180;16399;51.686;8.684;2023-11-21T01:46:48;99356.00;;;7.10
29423;BMP180;16399;51.686;8.684;2023-11-21T01:49:50;99355.00;;;7.20
29423;BMP180;16399;51.686;8.684;2023-11-21T01:52:53;99349.00;;;7.20
29423;BMP180;16399;51.686;8.684;2023-11-21T01:55:56;99352.00;;;7.20
29423;BMP180;16399;51.686;8.684;2023-11-21T01:58:59;99351.00;;;7.20
29423;BMP180;16399;51.686;8.684;2023-11-21T02:02:01;99346.00;;;7.10
29423;BMP180;16399;51.686;8.684;2023-11-21T02:05:05;99353.00;;;7.10
29423;BMP180;16399;51.686;8.684;2023-11-21T02:08:09;99353.00;;;7.00
29423;BMP180;16399;51.686;8.684;2023-11-21T02:11:12;99351.00;;;6.90
29423;BMP180;16399;51.686;8.684;2023-11-21T02:14:14;99358.00;;;6.80
29423;BMP180;16399;51.686;8.684;2023-11-21T02:17:16;99373.00;;;6.70
29423;BMP180;16399;51.686;8.684;2023-11-21T02:20:20;99365.00;;;6.60
29423;BMP180;16399;51.686;8.684;2023-11-21T02:23:23;99381.00;;;6.50
29423;BMP180;16399;51.686;8.684;2023-11-21T02:26:27;99369.00;;;6.50
29423;BMP180;16399;51.686;8.684;2023-11-21T02:29:30;99351.00;;;6.40
29423;BMP180;16399;51.686;8.684;2023-11-21T02:32:32;99371.00;;;6.30
29423;BMP180;16399;51.686;8.684;2023-11-21T02:35:35;99372.00;;;6.20
29423;BMP180;16399;51.686;8.684;2023-11-21T02:38:39;99382.00;;;6.20
29423;BMP180;16399;51.686;8.684;2023-11-21T02:41:41;99385.00;;;6.10
29423;BMP180;16399;51.686;8.684;2023-11-21T02:44:43;99385.00;;;6.00
29423;BMP180;16399;51.686;8.684;2023-11-21T02:47:46;99386.00;;;5.90
29423;BMP180;16399;51.686;8.684;2023-11-21T02:50:48;99381.00;;;5.90
29423;BMP180;16399;51.686;8.684;2023-11-21T02:53:52;99388.00;;;5.90
29423;BMP180;16399;51.686;8.684;2023-11-21T02:56:54;99395.00;;;5.90
29423;BMP180;16399;51.686;8.684;2023-11-21T02:59:56;99401.00;;;5.90
29423;BMP180;16399;51.686;8.684;2023-11-21T03:02:58;99395.00;;;6.00
29423;BMP180;16399;51.686;8.684;2023-11-21T03:06:01;99401.00;;;6.00
29423;BMP180;16399;51.686;8.684;2023-11-21T03:09:05;99402.00;;;6.00
29423;BMP180;16399;51.686;8.684;2023-11-21T03:12:09;99405.00;;;6.10
29423;BMP180;16399;51.686;8.684;2023-11-21T03:15:13;99404.00;;;6.20
29423;BMP180;16399;51.686;8.684;2023-11-21T03:18:16;99403.00;;;6.20
29423;BMP180;16399;51.686;8.684;2023-11-21T03:21:18;99421.00;;;6.30
29423;BMP180;16399;51.686;8.684;2023-11-21T03:24:20;99417.00;;;6.40
29423;BMP180;16399;51.686;8.684;2023-11-21T03:27:23;99406.00;;;6.40
29423;BMP180;16399;51.686;8.684;2023-11-21T03:30:26;99425.00;;;6.50
29423;BMP180;16399;51.686;8.684;2023-11-21T03:33:28;99422.00;;;6.60
29423;BMP180;16399;51.686;8.684;2023-11-21T03:36:30;99428.00;;;6.60
29423;BMP180;16399;51.686;8.684;2023-11-21T03:39:32;99429.00;;;6.70
29423;BMP180;16399;51.686;8.684;2023-11-21T03:42:35;99431.00;;;6.70
29423;BMP180;16399;51.686;8.684;2023-11-21T03:45:37;99431.00;;;6.80
29423;BMP180;16399;51.686;8.684;2023-11-21T03:48:41;99438.00;;;6.80
29423;BMP180;16399;51.686;8.684;2023-11-21T03:51:44;99443.00;;;6.80
29423;BMP180;16399;51.686;8.684;2023-11-21T03:54:46;99441.00;;;6.80
29423;BMP180;16399;51.686;8.684;2023-11-21T03:57:48;99445.00;;;6.80
29423;BMP180;16399;51.686;8.684;2023-11-21T04:00:51;99443.00;;;6.90
29423;BMP180;16399;51.686;8.684;2023-11-21T04:03:53;99445.00;;;6.90
29423;BMP180;16399;51.686;8.684;2023-11-21T04:06:56;99450.00;;;6.90
29423;BMP180;16399;51.686;8.684;2023-11-21T04:09:58;99460.00;;;6.90
29423;BMP180;16399;51.686;8.684;2023-11-21T04:13:01;99453.00;;;7.00
29423;BMP180;16399;51.686;8.684;2023-11-21T04:16:03;99461.00;;;7.00
29423;BMP180;16399;51.686;8.684;2023-11-21T04:19:06;99468.00;;;7.10
29423;BMP180;16399;51.686;8.684;2023-11-21T04:22:08;99467.00;;;7.10
29423;BMP180;16399;51.686;8.684;2023-11-21T04:25:16;99468.00;;;7.20
29423;BMP180;16399;51.686;8.684;2023-11-21T04:28:18;99474.00;;;7.20
29423;BMP180;16399;51.686;8.684;2023-11-21T04:31:21;99472.00;;;7.20
29423;BMP180;16399;51.686;8.684;2023-11-21T04:34:23;99476.00;;;7.30
29423;BMP180;16399;51.686;8.684;2023-11-21T04:37:25;99483.00;;;7.30
29423;BMP180;16399;51.686;8.684;2023-11-21T04:40:28;99484.00;;;7.30
29423;BMP180;16399;51.686;8.684;2023-11-21T04:43:30;99479.00;;;7.30
29423;BMP180;16399;51.686;8.684;2023-11-21T04:46:32;99486.00;;;7.40
29423;BMP180;16399;51.686;8.684;2023-11-21T04:49:34;99480.00;;;7.40
29423;BMP180;16399;51.686;8.684;2023-11-21T04:52:37;99484.00;;;7.40
29423;BMP180;16399;51.686;8.684;2023-11-21T04:55:39;99488.00;;;7.40
29423;BMP180;16399;51.686;8.684;2023-11-21T04:58:41;99496.00;;;7.50
29423;BMP180;16399;51.686;8.684;2023-11-21T05:01:44;99505.00;;;7.50
29423;BMP180;16399;51.686;8.684;2023-11-21T05:04:46;99491.00;;;7.50
29423;BMP180;16399;51.686;8.684;2023-11-21T05:07:49;99492.00;;;7.50
29423;BMP180;16399;51.686;8.684;2023-11-21T05:10:51;99504.00;;;7.50
29423;BMP180;16399;51.686;8.684;2023-11-21T05:13:54;99501.00;;;7.60
29423;BMP180;16399;51.686;8.684;2023-11-21T05:17:01;99498.00;;;7.60
29423;BMP180;16399;51.686;8.684;2023-11-21T05:20:06;99499.00;;;7.60
29423;BMP180;16399;51.686;8.684;2023-11-21T05:23:09;99508.00;;;7.60
29423;BMP180;16399;51.686;8.684;2023-11-21T05:26:11;99499.00;;;7.60
29423;BMP180;16399;51.686;8.684;2023-11-21T05:29:14;99510.00;;;7.70
29423;BMP180;16399;51.686;8.684;2023-11-21T05:32:16;99506.00;;;7.70
29423;BMP180;16399;51.686;8.684;2023-11-21T05:35:18;99505.00;;;7.70
29423;BMP180;16399;51.686;8.684;2023-11-21T05:38:21;99511.00;;;7.70
29423;BMP180;16399;51.686;8.684;2023-11-21T05:41:23;99516.00;;;7.70
29423;BMP180;16399;51.686;8.684;2023-11-21T05:44:26;99523.00;;;7.70
29423;BMP180;16399;51.686;8.684;2023-11-21T05:47:29;99516.00;;;7.80
29423;BMP180;16399;51.686;8.684;2023-11-21T05:50:31;99510.00;;;7.80
29423;BMP180;16399;51.686;8.684;2023-11-21T05:53:33;99530.00;;;7.80
29423;BMP180;16399;51.686;8.684;2023-11-21T05:56:36;99529.00;;;7.80
29423;BMP180;16399;51.686;8.684;2023-11-21T05:59:38;99530.00;;;7.80
29423;BMP180;16399;51.686;8.684;2023-11-21T06:02:41;99532.00;;;7.80
29423;BMP180;16399;51.686;8.684;2023-11-21T06:05:43;99534.00;;;7.80
29423;BMP180;16399;51.686;8.684;2023-11-21T06:08:46;99543.00;;;7.80
29423;BMP180;16399;51.686;8.684;2023-11-21T06:11:48;99537.00;;;7.80
29423;BMP180;16399;51.686;8.684;2023-11-21T06:14:50;99536.00;;;7.80
29423;BMP180;16399;51.686;8.684;2023-11-21T06:17:52;99537.00;;;7.90
29423;BMP180;16399;51.686;8.684;2023-11-21T06:20:55;99540.00;;;7.90
29423;BMP180;16399;51.686;8.684;2023-11-21T06:23:57;99557.00;;;7.90
29423;BMP180;16399;51.686;8.684;2023-11-21T06:26:59;99553.00;;;8.00
29423;BMP180;16399;51.686;8.684;2023-11-21T06:30:02;99568.00;;;8.00
29423;BMP180;16399;51.686;8.684;2023-11-21T06:33:04;99565.00;;;8.00
29423;BMP180;16399;51.686;8.684;2023-11-21T06:36:08;99573.00;;;8.00
29423;BMP180;16399;51.686;8.684;2023-11-21T06:39:12;99577.00;;;8.00
29423;BMP180;16399;51.686;8.684;2023-11-21T06:42:16;99577.00;;;8.00
29423;BMP180;16399;51.686;8.684;2023-11-21T06:45:18;99581.00;;;8.10
29423;BMP180;16399;51.686;8.684;2023-11-21T06:48:21;99574.00;;;8.10
29423;BMP180;16399;51.686;8.684;2023-11-21T06:51:23;99585.00;;;8.10
29423;BMP180;16399;51.686;8.684;2023-11-21T06:54:27;99592.00;;;8.10
29423;BMP180;16399;51.686;8.684;2023-11-21T06:57:29;99591.00;;;8.20
29423;BMP180;16399;51.686;8.684;2023-11-21T07:00:31;99610.00;;;8.20
29423;BMP180;16399;51.686;8.684;2023-11-21T07:03:34;99606.00;;;8.20
29423;BMP180;16399;51.686;8.684;2023-11-21T07:06:38;99615.00;;;8.20
29423;BMP180;16399;51.686;8.684;2023-11-21T07:09:40;99616.00;;;8.30
29423;BMP180;16399;51.686;8.684;2023-11-21T07:12:43;99619.00;;;8.30
29423;BMP180;16399;51.686;8.684;2023-11-21T07:15:45;99609.00;;;8.30
29423;BMP180;16399;51.686;8.684;2023-11-21T07:18:48;99624.00;;;8.30
29423;BMP180;16399;51.686;8.684;2023-11-21T07:21:50;99628.00;;;8.30
29423;BMP180;16399;51.686;8.684;2023-11-21T07:24:52;99624.00;;;8.30
29423;BMP180;16399;51.686;8.684;2023-11-21T07:27:55;99634.00;;;8.30
29423;BMP180;16399;51.686;8.684;2023-11-21T07:30:57;99637.00;;;8.30
29423;BMP180;16399;51.686;8.684;2023-11-21T07:34:01;99642.00;;;8.40
29423;BMP180;16399;51.686;8.684;2023-11-21T07:37:03;99645.00;;;8.40
29423;BMP180;16399;51.686;8.684;2023-11-21T07:40:06;99647.00;;;8.40
29423;BMP180;16399;51.686;8.684;2023-11-21T07:43:09;99658.00;;;8.40
29423;BMP180;16399;51.686;8.684;2023-11-21T07:46:12;99658.00;;;8.40
29423;BMP180;16399;51.686;8.684;2023-11-21T07:49:14;99665.00;;;8.40
29423;BMP180;16399;51.686;8.684;2023-11-21T07:52:18;99671.00;;;8.40
29423;BMP180;16399;51.686;8.684;2023-11-21T07:55:22;99681.00;;;8.30
29423;BMP180;16399;51.686;8.684;2023-11-21T07:58:26;99684.00;;;8.30
29423;BMP180;16399;51.686;8.684;2023-11-21T08:01:28;99678.00;;;8.30
29423;BMP180;16399;51.686;8.684;2023-11-21T08:04:30;99681.00;;;8.30
29423;BMP180;16399;51.686;8.684;2023-11-21T08:07:34;99690.00;;;8.30
29423;BMP180;16399;51.686;8.684;2023-11-21T08:10:36;99695.00;;;8.30
29423;BMP180;16399;51.686;8.684;2023-11-21T08:13:38;99692.00;;;8.30
29423;BMP180;16399;51.686;8.684;2023-11-21T08:16:40;99697.00;;;8.40
29423;BMP180;16399;51.686;8.684;2023-11-21T08:19:43;99696.00;;;8.40
29423;BMP180;16399;51.686;8.684;2023-11-21T08:22:46;99695.00;;;8.40
29423;BMP180;16399;51.686;8.684;2023-11-21T08:25:49;99700.00;;;8.40
29423;BMP180;16399;51.686;8.684;2023-11-21T08:28:51;99695.00;;;8.50
29423;BMP180;16399;51.686;8.684;2023-11-21T08:31:57;99701.00;;;8.50
29423;BMP180;16399;51.686;8.684;2023-11-21T08:35:01;99706.00;;;8.50
29423;BMP180;16399;51.686;8.684;2023-11-21T08:38:04;99696.00;;;8.60
29423;BMP180;16399;51.686;8.684;2023-11-21T08:41:06;99701.00;;;8.60
29423;BMP180;16399;51.686;8.684;2023-11-21T08:44:09;99692.00;;;8.60
29423;BMP180;16399;51.686;8.684;2023-11-21T08:47:12;99703.00;;;8.60
29423;BMP180;16399;51.686;8.684;2023-11-21T08:50:15;99709.00;;;8.60
29423;BMP180;16399;51.686;8.684;2023-11-21T08:53:17;99714.00;;;8.60
29423;BMP180;16399;51.686;8.684;2023-11-21T08:56:20;99712.00;;;8.60
29423;BMP180;16399;51.686;8.684;2023-11-21T08:59:22;99727.00;;;8.60
29423;BMP180;16399;51.686;8.684;2023-11-21T09:02:28;99733.00;;;8.50
29423;BMP180;16399;51.686;8.684;2023-11-21T09:05:30;99739.00;;;8.50
29423;BMP180;16399;51.686;8.684;2023-11-21T09:08:32;99744.00;;;8.50
29423;BMP180;16399;51.686;8.684;2023-11-21T09:11:34;99730.00;;;8.40
29423;BMP180;16399;51.686;8.684;2023-11-21T09:14:37;99759.00;;;8.40
29423;BMP180;16399;51.686;8.684;2023-11-21T09:17:40;99760.00;;;8.40
29423;BMP180;16399;51.686;8.684;2023-11-21T09:20:43;99754.00;;;8.40
29423;BMP180;16399;51.686;8.684;2023-11-21T09:23:46;99767.00;;;8.40
29423;BMP180;16399;51.686;8.684;2023-11-21T09:26:49;99773.00;;;8.30
29423;BMP180;16399;51.686;8.684;2023-11-21T09:29:51;99776.00;;;8.30
29423;BMP180;16399;51.686;8.684;2023-11-21T09:32:55;99771.00;;;8.30
29423;BMP180;16399;51.686;8.684;2023-11-21T09:35:59;99781.00;;;8.30
29423;BMP180;16399;51.686;8.684;2023-11-21T09:39:02;99783.00;;;8.40
29423;BMP180;16399;51.686;8.684;2023-11-21T09:42:28;99786.00;;;8.40
29423;BMP180;16399;51.686;8.684;2023-11-21T09:45:38;99797.00;;;8.40
29423;BMP180;16399;51.686;8.684;2023-11-21T09:48:42;99784.00;;;8.40
29423;BMP180;16399;51.686;8.684;2023-11-21T09:51:45;99795.00;;;8.40
29423;BMP180;16399;51.686;8.684;2023-11-21T09:54:50;99793.00;;;8.40
29423;BMP180;16399;51.686;8.684;2023-11-21T09:57:53;99799.00;;;8.40
29423;BMP180;16399;51.686;8.684;2023-11-21T10:00:58;99796.00;;;8.40
29423;BMP180;16399;51.686;8.684;2023-11-21T10:04:01;99821.00;;;8.40
29423;BMP180;16399;51.686;8.684;2023-11-21T10:07:05;99805.00;;;8.40
29423;BMP180;16399;51.686;8.684;2023-11-21T10:10:09;99801.00;;;8.40
29423;BMP180;16399;51.686;8.684;2023-11-21T10:13:13;99812.00;;;8.40
29423;BMP180;16399;51.686;8.684;2023-11-21T10:16:19;99801.00;;;8.30
29423;BMP180;16399;51.686;8.684;2023-11-21T10:19:25;99806.00;;;8.30
29423;BMP180;16399;51.686;8.684;2023-11-21T10:22:28;99810.00;;;8.30
29423;BMP180;16399;51.686;8.684;2023-11-21T10:25:31;99809.00;;;8.30
29423;BMP180;16399;51.686;8.684;2023-11-21T10:28:35;99812.00;;;8.30
29423;BMP180;16399;51.686;8.684;2023-11-21T10:31:39;99818.00;;;8.30
29423;BMP180;16399;51.686;8.684;2023-11-21T10:34:42;99827.00;;;8.30
29423;BMP180;16399;51.686;8.684;2023-11-21T10:37:44;99830.00;;;8.30
29423;BMP180;16399;51.686;8.684;2023-11-21T10:40:46;99827.00;;;8.30
29423;BMP180;16399;51.686;8.684;2023-11-21T10:43:52;99831.00;;;8.40
29423;BMP180;16399;51.686;8.684;2023-11-21T10:46:57;99824.00;;;8.40
29423;BMP180;16399;51.686;8.684;2023-11-21T10:50:01;99837.00;;;8.40
29423;BMP180;16399;51.686;8.684;2023-11-21T10:53:06;99838.00;;;8.40
29423;BMP180;16399;51.686;8.684;2023-11-21T10:56:09;99843.00;;;8.30
29423;BMP180;16399;51.686;8.684;2023-11-21T10:59:18;99838.00;;;8.50
29423;BMP180;16399;51.686;8.684;2023-11-21T11:02:26;99835.00;;;8.50
29423;BMP180;16399;51.686;8.684;2023-11-21T11:05:32;99841.00;;;8.50
29423;BMP180;16399;51.686;8.684;2023-11-21T11:08:36;99849.00;;;8.50
29423;BMP180;16399;51.686;8.684;2023-11-21T11:11:40;99844.00;;;8.60
29423;BMP180;16399;51.686;8.684;2023-11-21T11:14:42;99843.00;;;8.50
29423;BMP180;16399;51.686;8.684;2023-11-21T11:17:46;99842.00;;;8.60
29423;BMP180;16399;51.686;8.684;2023-11-21T11:20:50;99837.00;;;8.60
29423;BMP180;16399;51.686;8.684;2023-11-21T11:31:00;99861.00;;;8.70
29423;BMP180;16399;51.686;8.684;2023-11-21T11:37:21;99862.00;;;8.70
29423;BMP180;16399;51.686;8.684;2023-11-21T11:40:38;99861.00;;;8.80
29423;BMP180;16399;51.686;8.684;2023-11-21T11:43:30;99863.00;;;8.80
29423;BMP180;16399;51.686;8.684;2023-11-21T11:46:44;99867.00;;;8.80
29423;BMP180;16399;51.686;8.684;2023-11-21T11:50:06;99869.00;;;8.80
29423;BMP180;16399;51.686;8.684;2023-11-21T11:53:15;99870.00;;;8.80
29423;BMP180;16399;51.686;8.684;2023-11-21T11:56:22;99871.00;;;8.80
29423;BMP180;16399;51.686;8.684;2023-11-21T11:59:27;99876.00;;;8.80
29423;BMP180;16399;51.686;8.684;2023-11-21T12:02:29;99869.00;;;8.80
29423;BMP180;16399;51.686;8.684;2023-11-21T12:05:33;99872.00;;;8.70
29423;BMP180;16399;51.686;8.684;2023-11-21T12:08:40;99880.00;;;8.70
29423;BMP180;16399;51.686;8.684;2023-11-21T12:11:43;99881.00;;;8.60
29423;BMP180;16399;51.686;8.684;2023-11-21T12:14:46;99878.00;;;8.60
29423;BMP180;16399;51.686;8.684;2023-11-21T12:17:49;99889.00;;;8.50
29423;BMP180;16399;51.686;8.684;2023-11-21T12:20:51;99888.00;;;8.50
29423;BMP180;16399;51.686;8.684;2023-11-21T12:23:54;99895.00;;;8.50
29423;BMP180;16399;51.686;8.684;2023-11-21T12:26:56;99906.00;;;8.50
29423;BMP180;16399;51.686;8.684;2023-11-21T12:29:58;99903.00;;;8.50
29423;BMP180;16399;51.686;8.684;2023-11-21T12:33:01;99915.00;;;8.40
29423;BMP180;16399;51.686;8.684;2023-11-21T12:36:04;99917.00;;;8.40
29423;BMP180;16399;51.686;8.684;2023-11-21T12:39:07;99927.00;;;8.40
29423;BMP180;16399;51.686;8.684;2023-11-21T12:42:11;99924.00;;;8.40
29423;BMP180;16399;51.686;8.684;2023-11-21T12:45:18;99928.00;;;8.30
29423;BMP180;16399;51.686;8.684;2023-11-21T12:48:21;99936.00;;;8.30
29423;BMP180;16399;51.686;8.684;2023-11-21T12:51:25;99941.00;;;8.30
29423;BMP180;16399;51.686;8.684;2023-11-21T12:54:28;99939.00;;;8.20
29423;BMP180;16399;51.686;8.684;2023-11-21T12:57:30;99939.00;;;8.30
29423;BMP180;16399;51.686;8.684;2023-11-21T13:00:38;99941.00;;;8.30
29423;BMP180;16399;51.686;8.684;2023-11-21T13:03:39;99953.00;;;8.30
29423;BMP180;16399;51.686;8.684;2023-11-21T13:06:43;99947.00;;;8.30
29423;BMP180;16399;51.686;8.684;2023-11-21T13:09:46;99950.00;;;8.20
29423;BMP180;16399;51.686;8.684;2023-11-21T13:12:48;99956.00;;;8.20
29423;BMP180;16399;51.686;8.684;2023-11-21T13:15:55;99964.00;;;8.20
29423;BMP180;16399;51.686;8.684;2023-11-21T13:18:58;99971.00;;;8.10
29423;BMP180;16399;51.686;8.684;2023-11-21T13:22:00;99978.00;;;8.00
29423;BMP180;16399;51.686;8.684;2023-11-21T13:25:04;99983.00;;;8.10
29423;BMP180;16399;51.686;8.684;2023-11-21T13:28:09;99987.00;;;8.00
29423;BMP180;16399;51.686;8.684;2023-11-21T13:31:14;100000.00;;;8.00
29423;BMP180;16399;51.686;8.684;2023-11-21T13:34:24;100007.00;;;7.90
29423;BMP180;16399;51.686;8.684;2023-11-21T13:37:28;100006.00;;;7.90
29423;BMP180;16399;51.686;8.684;2023-11-21T13:40:32;100012.00;;;7.80
29423;BMP180;16399;51.686;8.684;2023-11-21T13:43:36;100018.00;;;7.80
29423;BMP180;16399;51.686;8.684;2023-11-21T13:46:38;100021.00;;;7.60
29423;BMP180;16399;51.686;8.684;2023-11-21T13:49:40;100035.00;;;7.60
29423;BMP180;16399;51.686;8.684;2023-11-21T13:52:44;100033.00;;;7.50
29423;BMP180;16399;51.686;8.684;2023-11-21T13:55:47;100036.00;;;7.50
29423;BMP180;16399;51.686;8.684;2023-11-21T13:58:50;100041.00;;;7.40
29423;BMP180;16399;51.686;8.684;2023-11-21T14:01:53;100044.00;;;7.20
29423;BMP180;16399;51.686;8.684;2023-11-21T14:04:59;100057.00;;;7.20
29423;BMP180;16399;51.686;8.684;2023-11-21T14:08:03;100065.00;;;7.20
29423;BMP180;16399;51.686;8.684;2023-11-21T14:11:07;100055.00;;;7.20
29423;BMP180;16399;51.686;8.684;2023-11-21T14:14:11;100062.00;;;7.20
29423;BMP180;16399;51.686;8.684;2023-11-21T14:17:13;100073.00;;;7.10
29423;BMP180;16399;51.686;8.684;2023-11-21T14:20:15;100076.00;;;7.10
29423;BMP180;16399;51.686;8.684;2023-11-21T14:23:18;100092.00;;;7.10
29423;BMP180;16399;51.686;8.684;2023-11-21T14:26:22;100088.00;;;7.00
29423;BMP180;16399;51.686;8.684;2023-11-21T14:29:26;100088.00;;;7.00
29423;BMP180;16399;51.686;8.684;2023-11-21T14:32:28;100094.00;;;7.00
29423;BMP180;16399;51.686;8.684;2023-11-21T14:35:32;100106.00;;;7.00
29423;BMP180;16399;51.686;8.684;2023-11-21T14:38:36;100118.00;;;7.00
29423;BMP180;16399;51.686;8.684;2023-11-21T14:41:40;100113.00;;;7.00
29423;BMP180;16399;51.686;8.684;2023-11-21T14:44:44;100111.00;;;7.10
29423;BMP180;16399;51.686;8.684;2023-11-21T14:47:49;100117.00;;;7.10
29423;BMP180;16399;51.686;8.684;2023-11-21T14:50:53;100130.00;;;7.10
29423;BMP180;16399;51.686;8.684;2023-11-21T14:54:06;100135.00;;;7.10
29423;BMP180;16399;51.686;8.684;2023-11-21T14:57:13;100136.00;;;7.10
29423;BMP180;16399;51.686;8.684;2023-11-21T15:00:23;100148.00;;;7.10
29423;BMP180;16399;51.686;8.684;2023-11-21T15:03:39;100144.00;;;7.00
29423;BMP180;16399;51.686;8.684;2023-11-21T15:06:49;100155.00;;;7.00
29423;BMP180;16399;51.686;8.684;2023-11-21T15:09:53;100167.00;;;7.00
29423;BMP180;16399;51.686;8.684;2023-11-21T15:12:55;100168.00;;;6.90
29423;BMP180;16399;51.686;8.684;2023-11-21T15:15:59;100174.00;;;6.90
29423;BMP180;16399;51.686;8.684;2023-11-21T15:19:03;100181.00;;;6.80
29423;BMP180;16399;51.686;8.684;2023-11-21T15:22:06;100189.00;;;6.80
29423;BMP180;16399;51.686;8.684;2023-11-21T15:25:09;100190.00;;;6.90
29423;BMP180;16399;51.686;8.684;2023-11-21T15:28:11;100187.00;;;6.90
29423;BMP180;16399;51.686;8.684;2023-11-21T15:31:13;100191.00;;;6.80
29423;BMP180;16399;51.686;8.684;2023-11-21T15:34:17;100192.00;;;6.80
29423;BMP180;16399;51.686;8.684;2023-11-21T15:37:20;100208.00;;;6.80
29423;BMP180;16399;51.686;8.684;2023-11-21T15:40:22;100203.00;;;6.80
29423;BMP180;16399;51.686;8.684;2023-11-21T15:43:24;100203.00;;;6.80
29423;BMP180;16399;51.686;8.684;2023-11-21T15:46:28;100208.00;;;6.70
29423;BMP180;16399;51.686;8.684;2023-11-21T15:49:32;100204.00;;;6.70
29423;BMP180;16399;51.686;8.684;2023-11-21T15:52:36;100208.00;;;6.70
29423;BMP180;16399;51.686;8.684;2023-11-21T15:55:39;100226.00;;;6.70
29423;BMP180;16399;51.686;8.684;2023-11-21T15:58:43;100235.00;;;6.70
29423;BMP180;16399;51.686;8.684;2023-11-21T16:01:46;100248.00;;;6.70
29423;BMP180;16399;51.686;8.684;2023-11-21T16:04:49;100247.00;;;6.70
29423;BMP180;16399;51.686;8.684;2023-11-21T16:07:52;100254.00;;;6.70
29423;BMP180;16399;51.686;8.684;2023-11-21T16:10:55;100255.00;;;6.70
29423;BMP180;16399;51.686;8.684;2023-11-21T16:13:58;100258.00;;;6.70
29423;BMP180;16399;51.686;8.684;2023-11-21T16:17:00;100263.00;;;6.70
29423;BMP180;16399;51.686;8.684;2023-11-21T16:20:03;100278.00;;;6.70
29423;BMP180;16399;51.686;8.684;2023-11-21T16:23:08;100282.00;;;6.70
29423;BMP180;16399;51.686;8.684;2023-11-21T16:26:10;100280.00;;;6.70
29423;BMP180;16399;51.686;8.684;2023-11-21T16:29:13;100290.00;;;6.70
29423;BMP180;16399;51.686;8.684;2023-11-21T16:32:16;100292.00;;;6.70
29423;BMP180;16399;51.686;8.684;2023-11-21T16:35:19;100295.00;;;6.70
29423;BMP180;16399;51.686;8.684;2023-11-21T16:38:22;100306.00;;;6.70
29423;BMP180;16399;51.686;8.684;2023-11-21T16:41:24;100312.00;;;6.70
29423;BMP180;16399;51.686;8.684;2023-11-21T16:44:26;100317.00;;;6.70
29423;BMP180;16399;51.686;8.684;2023-11-21T16:47:30;100316.00;;;6.70
29423;BMP180;16399;51.686;8.684;2023-11-21T16:50:34;100314.00;;;6.60
29423;BMP180;16399;51.686;8.684;2023-11-21T16:53:37;100335.00;;;6.60
29423;BMP180;16399;51.686;8.684;2023-11-21T16:56:41;100333.00;;;6.60
29423;BMP180;16399;51.686;8.684;2023-11-21T16:59:44;100335.00;;;6.60
29423;BMP180;16399;51.686;8.684;2023-11-21T17:02:48;100356.00;;;6.60
29423;BMP180;16399;51.686;8.684;2023-11-21T17:05:51;100366.00;;;6.50
29423;BMP180;16399;51.686;8.684;2023-11-21T17:08:54;100361.00;;;6.50
29423;BMP180;16399;51.686;8.684;2023-11-21T17:11:56;100373.00;;;6.40
29423;BMP180;16399;51.686;8.684;2023-11-21T17:14:59;100384.00;;;6.40
29423;BMP180;16399;51.686;8.684;2023-11-21T17:18:02;100378.00;;;6.30
29423;BMP180;16399;51.686;8.684;2023-11-21T17:21:04;100380.00;;;6.30
29423;BMP180;16399;51.686;8.684;2023-11-21T17:24:06;100394.00;;;6.30
29423;BMP180;16399;51.686;8.684;2023-11-21T17:27:10;100397.00;;;6.30
29423;BMP180;16399;51.686;8.684;2023-11-21T17:30:13;100399.00;;;6.20
29423;BMP180;16399;51.686;8.684;2023-11-21T17:33:15;100405.00;;;6.20
29423;BMP180;16399;51.686;8.684;2023-11-21T17:36:19;100418.00;;;6.20
29423;BMP180;16399;51.686;8.684;2023-11-21T17:39:21;100415.00;;;6.20
29423;BMP180;16399;51.686;8.684;2023-11-21T17:42:24;100430.00;;;6.20
29423;BMP180;16399;51.686;8.684;2023-11-21T17:45:26;100430.00;;;6.20
29423;BMP180;16399;51.686;8.684;2023-11-21T17:48:29;100436.00;;;6.20
29423;BMP180;16399;51.686;8.684;2023-11-21T17:51:31;100444.00;;;6.10
29423;BMP180;16399;51.686;8.684;2023-11-21T17:54:35;100441.00;;;6.10
29423;BMP180;16399;51.686;8.684;2023-11-21T17:57:40;100450.00;;;6.10